sensor_id;sensor_type;location;lat;lon;timestamp;P1;durP1;ratioP1;P2;durP2;ratioP2
73697;SDS011;62004;42.566;23.164;2023-04-03T00:00:09;599.38;;;269.38;;
73697;SDS011;62004;42.566;23.164;2023-04-03T00:02:35;597.33;;;248.48;;
73697;SDS011;62004;42.566;23.164;2023-04-03T00:05:00;669.70;;;292.77;;
73697;SDS011;62004;42.566;23.164;2023-04-03T00:07:25;580.22;;;274.70;;
73697;SDS011;62004;42.566;23.164;2023-04-03T00:09:50;628.00;;;282.00;;
73697;SDS011;62004;42.566;23.164;2023-04-03T00:12:16;636.07;;;270.87;;
73697;SDS011;62004;42.566;23.164;2023-04-03T00:14:41;677.97;;;296.03;;
73697;SDS011;62004;42.566;23.164;2023-04-03T00:17:06;618.90;;;283.47;;
73697;SDS011;62004;42.566;23.164;2023-04-03T00:19:31;630.53;;;283.87;;
73697;SDS011;62004;42.566;23.164;2023-04-03T00:21:57;604.00;;;283.23;;
73697;SDS011;62004;42.566;23.164;2023-04-03T00:24:22;644.70;;;277.07;;
73697;SDS011;62004;42.566;23.164;2023-04-03T00:26:47;553.97;;;255.90;;
73697;SDS011;62004;42.566;23.164;2023-04-03T00:29:12;593.27;;;267.43;;
73697;SDS011;62004;42.566;23.164;2023-04-03T00:31:38;581.83;;;259.87;;
73697;SDS011;62004;42.566;23.164;2023-04-03T00:34:03;657.43;;;268.10;;
73697;SDS011;62004;42.566;23.164;2023-04-03T00:36:28;579.87;;;270.77;;
73697;SDS011;62004;42.566;23.164;2023-04-03T00:38:54;594.17;;;269.85;;
73697;SDS011;62004;42.566;23.164;2023-04-03T00:41:19;623.27;;;287.00;;
73697;SDS011;62004;42.566;23.164;2023-04-03T00:43:45;596.23;;;273.50;;
73697;SDS011;62004;42.566;23.164;2023-04-03T00:46:10;741.70;;;299.67;;
73697;SDS011;62004;42.566;23.164;2023-04-03T00:48:40;537.47;;;256.70;;
73697;SDS011;62004;42.566;23.164;2023-04-03T00:51:06;529.67;;;246.27;;
73697;SDS011;62004;42.566;23.164;2023-04-03T00:53:35;563.08;;;260.60;;
73697;SDS011;62004;42.566;23.164;2023-04-03T00:56:02;589.63;;;240.55;;
73697;SDS011;62004;42.566;23.164;2023-04-03T00:58:33;733.10;;;284.15;;
73697;SDS011;62004;42.566;23.164;2023-04-03T01:01:03;853.85;;;287.00;;
73697;SDS011;62004;42.566;23.164;2023-04-03T01:03:30;624.13;;;271.00;;
73697;SDS011;62004;42.566;23.164;2023-04-03T01:05:56;582.58;;;251.52;;
73697;SDS011;62004;42.566;23.164;2023-04-03T01:08:21;696.10;;;274.63;;
73697;SDS011;62004;42.566;23.164;2023-04-03T01:10:47;545.90;;;249.27;;
73697;SDS011;62004;42.566;23.164;2023-04-03T01:16:07;557.63;;;231.80;;
73697;SDS011;62004;42.566;23.164;2023-04-03T01:18:32;575.63;;;240.68;;
73697;SDS011;62004;42.566;23.164;2023-04-03T01:25:58;591.97;;;280.27;;
73697;SDS011;62004;42.566;23.164;2023-04-03T01:28:34;565.67;;;227.45;;
73697;SDS011;62004;42.566;23.164;2023-04-03T01:33:37;612.20;;;254.90;;
73697;SDS011;62004;42.566;23.164;2023-04-03T01:36:03;616.33;;;262.25;;
73697;SDS011;62004;42.566;23.164;2023-04-03T01:38:29;714.92;;;282.27;;
73697;SDS011;62004;42.566;23.164;2023-04-03T01:40:54;548.28;;;261.45;;
73697;SDS011;62004;42.566;23.164;2023-04-03T01:43:19;711.20;;;288.13;;
73697;SDS011;62004;42.566;23.164;2023-04-03T01:45:44;616.78;;;303.73;;
73697;SDS011;62004;42.566;23.164;2023-04-03T01:48:11;612.95;;;330.63;;
73697;SDS011;62004;42.566;23.164;2023-04-03T01:50:36;584.35;;;269.17;;
73697;SDS011;62004;42.566;23.164;2023-04-03T01:53:02;631.33;;;312.10;;
73697;SDS011;62004;42.566;23.164;2023-04-03T01:55:27;597.13;;;311.17;;
73697;SDS011;62004;42.566;23.164;2023-04-03T01:57:52;574.70;;;299.63;;
73697;SDS011;62004;42.566;23.164;2023-04-03T02:00:17;615.73;;;311.23;;
73697;SDS011;62004;42.566;23.164;2023-04-03T02:02:43;588.90;;;321.27;;
73697;SDS011;62004;42.566;23.164;2023-04-03T02:05:08;685.33;;;298.67;;
73697;SDS011;62004;42.566;23.164;2023-04-03T02:07:33;639.00;;;337.10;;
73697;SDS011;62004;42.566;23.164;2023-04-03T02:09:58;559.93;;;310.63;;
73697;SDS011;62004;42.566;23.164;2023-04-03T02:12:24;637.22;;;306.85;;
73697;SDS011;62004;42.566;23.164;2023-04-03T02:14:49;585.77;;;315.97;;
73697;SDS011;62004;42.566;23.164;2023-04-03T02:17:14;606.93;;;317.73;;
73697;SDS011;62004;42.566;23.164;2023-04-03T02:19:40;585.57;;;329.77;;
73697;SDS011;62004;42.566;23.164;2023-04-03T02:22:05;628.33;;;330.27;;
73697;SDS011;62004;42.566;23.164;2023-04-03T02:24:31;583.00;;;324.30;;
73697;SDS011;62004;42.566;23.164;2023-04-03T02:26:56;634.95;;;321.52;;
73697;SDS011;62004;42.566;23.164;2023-04-03T02:29:22;614.67;;;309.00;;
73697;SDS011;62004;42.566;23.164;2023-04-03T02:31:47;618.63;;;303.50;;
73697;SDS011;62004;42.566;23.164;2023-04-03T02:34:12;639.43;;;302.40;;
73697;SDS011;62004;42.566;23.164;2023-04-03T02:36:38;787.77;;;363.07;;
73697;SDS011;62004;42.566;23.164;2023-04-03T02:39:03;591.05;;;324.60;;
73697;SDS011;62004;42.566;23.164;2023-04-03T02:41:28;572.00;;;308.03;;
73697;SDS011;62004;42.566;23.164;2023-04-03T02:43:59;844.35;;;344.83;;
73697;SDS011;62004;42.566;23.164;2023-04-03T02:46:25;613.78;;;317.70;;
73697;SDS011;62004;42.566;23.164;2023-04-03T02:48:50;596.60;;;308.13;;
73697;SDS011;62004;42.566;23.164;2023-04-03T02:51:15;658.03;;;315.47;;
73697;SDS011;62004;42.566;23.164;2023-04-03T02:53:41;731.97;;;344.07;;
73697;SDS011;62004;42.566;23.164;2023-04-03T02:56:06;595.20;;;296.17;;
73697;SDS011;62004;42.566;23.164;2023-04-03T02:58:31;540.90;;;303.27;;
73697;SDS011;62004;42.566;23.164;2023-04-03T03:00:56;620.30;;;299.23;;
73697;SDS011;62004;42.566;23.164;2023-04-03T03:03:22;580.43;;;318.07;;
73697;SDS011;62004;42.566;23.164;2023-04-03T03:05:47;579.78;;;315.33;;
73697;SDS011;62004;42.566;23.164;2023-04-03T03:08:13;675.00;;;330.65;;
73697;SDS011;62004;42.566;23.164;2023-04-03T03:10:38;621.17;;;322.30;;
73697;SDS011;62004;42.566;23.164;2023-04-03T03:13:03;857.00;;;344.63;;
73697;SDS011;62004;42.566;23.164;2023-04-03T03:15:29;551.28;;;309.75;;
73697;SDS011;62004;42.566;23.164;2023-04-03T03:17:54;536.75;;;292.15;;
73697;SDS011;62004;42.566;23.164;2023-04-03T03:20:20;656.73;;;339.23;;
73697;SDS011;62004;42.566;23.164;2023-04-03T03:22:45;588.90;;;316.63;;
73697;SDS011;62004;42.566;23.164;2023-04-03T03:25:11;606.23;;;289.27;;
73697;SDS011;62004;42.566;23.164;2023-04-03T03:27:36;593.03;;;337.50;;
73697;SDS011;62004;42.566;23.164;2023-04-03T03:30:01;599.53;;;317.80;;
73697;SDS011;62004;42.566;23.164;2023-04-03T03:32:26;648.77;;;302.37;;
73697;SDS011;62004;42.566;23.164;2023-04-03T03:34:52;621.50;;;338.40;;
73697;SDS011;62004;42.566;23.164;2023-04-03T03:37:17;668.93;;;320.93;;
73697;SDS011;62004;42.566;23.164;2023-04-03T03:39:42;597.67;;;313.40;;
73697;SDS011;62004;42.566;23.164;2023-04-03T03:42:07;626.30;;;308.63;;
73697;SDS011;62004;42.566;23.164;2023-04-03T03:44:33;580.10;;;281.53;;
73697;SDS011;62004;42.566;23.164;2023-04-03T03:46:58;665.70;;;325.93;;
73697;SDS011;62004;42.566;23.164;2023-04-03T03:49:23;569.20;;;293.47;;
73697;SDS011;62004;42.566;23.164;2023-04-03T03:51:48;638.23;;;314.33;;
73697;SDS011;62004;42.566;23.164;2023-04-03T03:54:14;677.50;;;320.92;;
73697;SDS011;62004;42.566;23.164;2023-04-03T03:56:40;603.72;;;319.88;;
73697;SDS011;62004;42.566;23.164;2023-04-03T03:59:05;582.53;;;306.83;;
73697;SDS011;62004;42.566;23.164;2023-04-03T04:01:31;565.17;;;312.52;;
73697;SDS011;62004;42.566;23.164;2023-04-03T04:03:56;707.22;;;314.58;;
73697;SDS011;62004;42.566;23.164;2023-04-03T04:06:22;636.70;;;298.33;;
73697;SDS011;62004;42.566;23.164;2023-04-03T04:08:47;536.20;;;303.53;;
73697;SDS011;62004;42.566;23.164;2023-04-03T04:11:12;584.72;;;312.27;;
73697;SDS011;62004;42.566;23.164;2023-04-03T04:13:38;569.33;;;294.73;;
73697;SDS011;62004;42.566;23.164;2023-04-03T04:16:03;542.33;;;284.07;;
73697;SDS011;62004;42.566;23.164;2023-04-03T04:18:28;551.03;;;312.45;;
73697;SDS011;62004;42.566;23.164;2023-04-03T04:20:54;585.95;;;292.88;;
73697;SDS011;62004;42.566;23.164;2023-04-03T04:23:19;598.03;;;325.53;;
73697;SDS011;62004;42.566;23.164;2023-04-03T04:25:45;644.63;;;297.77;;
73697;SDS011;62004;42.566;23.164;2023-04-03T04:28:11;707.90;;;314.42;;
73697;SDS011;62004;42.566;23.164;2023-04-03T04:30:37;666.15;;;314.10;;
73697;SDS011;62004;42.566;23.164;2023-04-03T04:33:02;596.47;;;311.90;;
73697;SDS011;62004;42.566;23.164;2023-04-03T04:35:27;581.47;;;270.02;;
73697;SDS011;62004;42.566;23.164;2023-04-03T04:37:53;628.00;;;313.52;;
73697;SDS011;62004;42.566;23.164;2023-04-03T04:40:18;619.85;;;308.88;;
73697;SDS011;62004;42.566;23.164;2023-04-03T04:42:43;585.53;;;300.50;;
73697;SDS011;62004;42.566;23.164;2023-04-03T04:45:09;603.47;;;322.80;;
73697;SDS011;62004;42.566;23.164;2023-04-03T04:47:34;597.88;;;304.63;;
73697;SDS011;62004;42.566;23.164;2023-04-03T04:50:00;595.20;;;312.53;;
73697;SDS011;62004;42.566;23.164;2023-04-03T04:52:25;611.23;;;335.27;;
73697;SDS011;62004;42.566;23.164;2023-04-03T04:54:50;540.93;;;288.23;;
73697;SDS011;62004;42.566;23.164;2023-04-03T04:57:15;563.50;;;315.07;;
73697;SDS011;62004;42.566;23.164;2023-04-03T04:59:40;555.00;;;303.17;;
73697;SDS011;62004;42.566;23.164;2023-04-03T05:02:06;725.30;;;320.30;;
73697;SDS011;62004;42.566;23.164;2023-04-03T05:04:31;560.20;;;293.80;;
73697;SDS011;62004;42.566;23.164;2023-04-03T05:06:56;591.92;;;289.25;;
73697;SDS011;62004;42.566;23.164;2023-04-03T05:09:22;595.77;;;305.83;;
73697;SDS011;62004;42.566;23.164;2023-04-03T05:11:47;596.58;;;313.98;;
73697;SDS011;62004;42.566;23.164;2023-04-03T05:14:12;654.23;;;321.50;;
73697;SDS011;62004;42.566;23.164;2023-04-03T05:16:37;609.17;;;325.10;;
73697;SDS011;62004;42.566;23.164;2023-04-03T05:19:03;699.33;;;335.97;;
73697;SDS011;62004;42.566;23.164;2023-04-03T05:21:28;565.97;;;298.88;;
73697;SDS011;62004;42.566;23.164;2023-04-03T05:23:57;590.85;;;317.80;;
73697;SDS011;62004;42.566;23.164;2023-04-03T05:26:22;778.90;;;344.67;;
73697;SDS011;62004;42.566;23.164;2023-04-03T05:28:48;643.33;;;307.97;;
73697;SDS011;62004;42.566;23.164;2023-04-03T05:31:13;644.80;;;303.67;;
73697;SDS011;62004;42.566;23.164;2023-04-03T05:33:38;634.13;;;330.17;;
73697;SDS011;62004;42.566;23.164;2023-04-03T05:36:04;649.77;;;309.77;;
73697;SDS011;62004;42.566;23.164;2023-04-03T05:38:29;621.35;;;303.35;;
73697;SDS011;62004;42.566;23.164;2023-04-03T05:40:55;699.20;;;315.38;;
73697;SDS011;62004;42.566;23.164;2023-04-03T05:43:20;674.70;;;289.37;;
73697;SDS011;62004;42.566;23.164;2023-04-03T05:45:47;669.83;;;325.50;;
73697;SDS011;62004;42.566;23.164;2023-04-03T05:48:12;655.63;;;297.42;;
73697;SDS011;62004;42.566;23.164;2023-04-03T05:50:37;615.63;;;295.05;;
73697;SDS011;62004;42.566;23.164;2023-04-03T05:53:06;661.55;;;276.85;;
73697;SDS011;62004;42.566;23.164;2023-04-03T05:55:32;627.72;;;314.50;;
73697;SDS011;62004;42.566;23.164;2023-04-03T05:57:57;673.10;;;277.83;;
73697;SDS011;62004;42.566;23.164;2023-04-03T06:00:22;601.27;;;251.80;;
73697;SDS011;62004;42.566;23.164;2023-04-03T06:02:48;652.90;;;294.70;;
73697;SDS011;62004;42.566;23.164;2023-04-03T06:05:13;640.17;;;308.83;;
73697;SDS011;62004;42.566;23.164;2023-04-03T06:07:39;579.28;;;252.82;;
73697;SDS011;62004;42.566;23.164;2023-04-03T06:10:05;655.75;;;312.25;;
73697;SDS011;62004;42.566;23.164;2023-04-03T06:12:30;656.08;;;300.13;;
73697;SDS011;62004;42.566;23.164;2023-04-03T06:14:56;646.35;;;304.00;;
73697;SDS011;62004;42.566;23.164;2023-04-03T06:17:22;643.42;;;295.08;;
73697;SDS011;62004;42.566;23.164;2023-04-03T06:19:47;688.90;;;311.40;;
73697;SDS011;62004;42.566;23.164;2023-04-03T06:22:13;648.33;;;288.00;;
73697;SDS011;62004;42.566;23.164;2023-04-03T06:24:38;664.80;;;286.10;;
73697;SDS011;62004;42.566;23.164;2023-04-03T06:27:03;651.07;;;277.73;;
73697;SDS011;62004;42.566;23.164;2023-04-03T06:29:29;715.45;;;296.10;;
73697;SDS011;62004;42.566;23.164;2023-04-03T06:31:55;670.70;;;277.38;;
73697;SDS011;62004;42.566;23.164;2023-04-03T06:34:20;639.80;;;274.65;;
73697;SDS011;62004;42.566;23.164;2023-04-03T06:36:46;679.38;;;299.15;;
73697;SDS011;62004;42.566;23.164;2023-04-03T06:39:13;892.47;;;312.88;;
73697;SDS011;62004;42.566;23.164;2023-04-03T06:41:39;776.38;;;299.38;;
73697;SDS011;62004;42.566;23.164;2023-04-03T06:44:04;639.20;;;280.07;;
73697;SDS011;62004;42.566;23.164;2023-04-03T06:46:29;716.93;;;285.67;;
73697;SDS011;62004;42.566;23.164;2023-04-03T06:48:56;740.65;;;306.90;;
73697;SDS011;62004;42.566;23.164;2023-04-03T06:51:25;700.13;;;278.93;;
73697;SDS011;62004;42.566;23.164;2023-04-03T06:53:52;704.60;;;272.20;;
73697;SDS011;62004;42.566;23.164;2023-04-03T06:56:18;691.47;;;275.98;;
73697;SDS011;62004;42.566;23.164;2023-04-03T06:58:44;733.50;;;296.88;;
73697;SDS011;62004;42.566;23.164;2023-04-03T07:01:10;682.95;;;266.02;;
73697;SDS011;62004;42.566;23.164;2023-04-03T07:03:36;701.78;;;253.43;;
73697;SDS011;62004;42.566;23.164;2023-04-03T07:06:01;738.00;;;287.88;;
73697;SDS011;62004;42.566;23.164;2023-04-03T07:08:27;707.78;;;274.45;;
73697;SDS011;62004;42.566;23.164;2023-04-03T07:10:52;731.37;;;267.47;;
73697;SDS011;62004;42.566;23.164;2023-04-03T07:13:17;674.10;;;245.90;;
73697;SDS011;62004;42.566;23.164;2023-04-03T07:15:42;699.83;;;253.70;;
73697;SDS011;62004;42.566;23.164;2023-04-03T07:18:08;687.87;;;289.67;;
73697;SDS011;62004;42.566;23.164;2023-04-03T07:20:33;653.60;;;261.87;;
73697;SDS011;62004;42.566;23.164;2023-04-03T07:22:58;631.17;;;223.13;;
73697;SDS011;62004;42.566;23.164;2023-04-03T07:25:24;687.05;;;233.30;;
73697;SDS011;62004;42.566;23.164;2023-04-03T07:27:50;685.55;;;280.17;;
73697;SDS011;62004;42.566;23.164;2023-04-03T07:30:15;711.27;;;264.10;;
73697;SDS011;62004;42.566;23.164;2023-04-03T07:32:40;637.90;;;241.65;;
73697;SDS011;62004;42.566;23.164;2023-04-03T07:35:06;677.30;;;250.70;;
73697;SDS011;62004;42.566;23.164;2023-04-03T07:37:31;717.25;;;273.20;;
73697;SDS011;62004;42.566;23.164;2023-04-03T07:39:57;661.45;;;264.48;;
73697;SDS011;62004;42.566;23.164;2023-04-03T07:42:24;644.03;;;274.42;;
73697;SDS011;62004;42.566;23.164;2023-04-03T07:44:49;678.95;;;271.08;;
73697;SDS011;62004;42.566;23.164;2023-04-03T07:47:14;689.27;;;272.33;;
73697;SDS011;62004;42.566;23.164;2023-04-03T07:49:41;681.90;;;278.50;;
73697;SDS011;62004;42.566;23.164;2023-04-03T07:52:07;681.15;;;282.70;;
73697;SDS011;62004;42.566;23.164;2023-04-03T07:54:33;661.08;;;273.27;;
73697;SDS011;62004;42.566;23.164;2023-04-03T07:56:59;692.30;;;279.70;;
73697;SDS011;62004;42.566;23.164;2023-04-03T07:59:24;693.50;;;280.00;;
73697;SDS011;62004;42.566;23.164;2023-04-03T08:01:49;675.05;;;277.67;;
73697;SDS011;62004;42.566;23.164;2023-04-03T08:04:15;681.17;;;262.23;;
73697;SDS011;62004;42.566;23.164;2023-04-03T08:06:40;670.17;;;291.95;;
73697;SDS011;62004;42.566;23.164;2023-04-03T08:09:05;693.83;;;280.30;;
73697;SDS011;62004;42.566;23.164;2023-04-03T08:11:31;642.60;;;265.70;;
73697;SDS011;62004;42.566;23.164;2023-04-03T08:13:56;681.00;;;269.57;;
73697;SDS011;62004;42.566;23.164;2023-04-03T08:16:22;697.22;;;289.05;;
73697;SDS011;62004;42.566;23.164;2023-04-03T08:18:50;650.20;;;277.10;;
73697;SDS011;62004;42.566;23.164;2023-04-03T08:21:15;700.73;;;287.10;;
73697;SDS011;62004;42.566;23.164;2023-04-03T08:23:41;692.23;;;281.23;;
73697;SDS011;62004;42.566;23.164;2023-04-03T08:26:07;625.30;;;269.58;;
73697;SDS011;62004;42.566;23.164;2023-04-03T08:28:33;687.33;;;292.65;;
73697;SDS011;62004;42.566;23.164;2023-04-03T08:31:02;651.20;;;304.60;;
73697;SDS011;62004;42.566;23.164;2023-04-03T08:33:27;628.85;;;286.10;;
73697;SDS011;62004;42.566;23.164;2023-04-03T08:35:52;640.17;;;298.53;;
73697;SDS011;62004;42.566;23.164;2023-04-03T08:38:17;642.53;;;304.33;;
73697;SDS011;62004;42.566;23.164;2023-04-03T08:40:43;619.43;;;296.37;;
73697;SDS011;62004;42.566;23.164;2023-04-03T08:46:00;614.38;;;291.83;;
73697;SDS011;62004;42.566;23.164;2023-04-03T08:48:35;646.92;;;316.23;;
73697;SDS011;62004;42.566;23.164;2023-04-03T08:51:02;620.03;;;289.23;;
73697;SDS011;62004;42.566;23.164;2023-04-03T08:53:31;599.13;;;301.40;;
73697;SDS011;62004;42.566;23.164;2023-04-03T08:55:57;636.15;;;300.40;;
73697;SDS011;62004;42.566;23.164;2023-04-03T08:58:24;637.30;;;291.48;;
73697;SDS011;62004;42.566;23.164;2023-04-03T09:00:55;622.28;;;292.58;;
73697;SDS011;62004;42.566;23.164;2023-04-03T09:03:23;633.33;;;292.85;;
73697;SDS011;62004;42.566;23.164;2023-04-03T09:10:39;646.95;;;303.73;;
73697;SDS011;62004;42.566;23.164;2023-04-03T09:13:12;627.45;;;296.67;;
73697;SDS011;62004;42.566;23.164;2023-04-03T09:15:39;613.75;;;297.52;;
73697;SDS011;62004;42.566;23.164;2023-04-03T09:18:11;631.33;;;296.23;;
73697;SDS011;62004;42.566;23.164;2023-04-03T09:23:30;630.35;;;295.15;;
73697;SDS011;62004;42.566;23.164;2023-04-03T09:26:19;676.55;;;302.95;;
73697;SDS011;62004;42.566;23.164;2023-04-03T09:28:42;622.85;;;286.70;;
73697;SDS011;62004;42.566;23.164;2023-04-03T09:31:19;624.88;;;280.75;;
73697;SDS011;62004;42.566;23.164;2023-04-03T09:33:47;643.60;;;301.70;;
73697;SDS011;62004;42.566;23.164;2023-04-03T09:36:14;625.42;;;296.02;;
73697;SDS011;62004;42.566;23.164;2023-04-03T09:39:02;636.30;;;292.80;;
73697;SDS011;62004;42.566;23.164;2023-04-03T09:41:28;629.10;;;290.65;;
73697;SDS011;62004;42.566;23.164;2023-04-03T09:43:53;641.83;;;302.08;;
73697;SDS011;62004;42.566;23.164;2023-04-03T09:46:32;643.50;;;302.40;;
73697;SDS011;62004;42.566;23.164;2023-04-03T09:48:59;640.75;;;299.63;;
73697;SDS011;62004;42.566;23.164;2023-04-03T09:51:25;638.92;;;289.90;;
73697;SDS011;62004;42.566;23.164;2023-04-03T09:53:52;640.15;;;294.25;;
73697;SDS011;62004;42.566;23.164;2023-04-03T09:58:46;613.37;;;281.63;;
73697;SDS011;62004;42.566;23.164;2023-04-03T10:01:33;627.78;;;291.58;;
73697;SDS011;62004;42.566;23.164;2023-04-03T10:04:06;613.60;;;275.48;;
73697;SDS011;62004;42.566;23.164;2023-04-03T10:06:33;634.42;;;284.23;;
73697;SDS011;62004;42.566;23.164;2023-04-03T10:09:02;641.15;;;296.40;;
73697;SDS011;62004;42.566;23.164;2023-04-03T10:11:30;638.28;;;295.83;;
73697;SDS011;62004;42.566;23.164;2023-04-03T10:13:57;631.53;;;288.88;;
73697;SDS011;62004;42.566;23.164;2023-04-03T10:16:44;602.03;;;285.55;;
73697;SDS011;62004;42.566;23.164;2023-04-03T10:21:50;619.83;;;296.65;;
73697;SDS011;62004;42.566;23.164;2023-04-03T10:24:23;617.33;;;280.95;;
73697;SDS011;62004;42.566;23.164;2023-04-03T10:26:53;646.55;;;302.38;;
73697;SDS011;62004;42.566;23.164;2023-04-03T10:29:31;658.42;;;303.17;;
73697;SDS011;62004;42.566;23.164;2023-04-03T10:34:40;625.63;;;299.80;;
73697;SDS011;62004;42.566;23.164;2023-04-03T10:37:27;633.40;;;309.65;;
73697;SDS011;62004;42.566;23.164;2023-04-03T10:50:27;644.97;;;309.48;;
73697;SDS011;62004;42.566;23.164;2023-04-03T10:57:52;629.00;;;286.43;;
73697;SDS011;62004;42.566;23.164;2023-04-03T11:00:23;641.53;;;302.33;;
73697;SDS011;62004;42.566;23.164;2023-04-03T11:02:51;616.75;;;283.20;;
73697;SDS011;62004;42.566;23.164;2023-04-03T11:07:43;631.03;;;297.15;;
73697;SDS011;62004;42.566;23.164;2023-04-03T11:10:19;612.03;;;275.13;;
73697;SDS011;62004;42.566;23.164;2023-04-03T11:12:47;620.60;;;282.95;;
73697;SDS011;62004;42.566;23.164;2023-04-03T11:15:15;651.85;;;286.73;;
73697;SDS011;62004;42.566;23.164;2023-04-03T11:17:41;606.83;;;270.27;;
73697;SDS011;62004;42.566;23.164;2023-04-03T11:22:41;640.17;;;295.73;;
73697;SDS011;62004;42.566;23.164;2023-04-03T11:25:13;628.88;;;287.83;;
73697;SDS011;62004;42.566;23.164;2023-04-03T11:30:32;639.03;;;289.25;;
73697;SDS011;62004;42.566;23.164;2023-04-03T11:35:32;716.15;;;287.58;;
73697;SDS011;62004;42.566;23.164;2023-04-03T11:37:58;656.53;;;296.55;;
73697;SDS011;62004;42.566;23.164;2023-04-03T11:40:26;642.90;;;281.13;;
73697;SDS011;62004;42.566;23.164;2023-04-03T11:43:04;659.00;;;291.42;;
73697;SDS011;62004;42.566;23.164;2023-04-03T11:48:04;652.35;;;305.08;;
73697;SDS011;62004;42.566;23.164;2023-04-03T12:05:48;616.90;;;266.58;;
73697;SDS011;62004;42.566;23.164;2023-04-03T12:16:20;642.73;;;247.67;;
73697;SDS011;62004;42.566;23.164;2023-04-03T12:21:15;675.03;;;257.55;;
73697;SDS011;62004;42.566;23.164;2023-04-03T12:27:13;684.70;;;260.55;;
73697;SDS011;62004;42.566;23.164;2023-04-03T12:29:38;657.15;;;235.50;;
73697;SDS011;62004;42.566;23.164;2023-04-03T12:32:23;732.35;;;240.77;;
73697;SDS011;62004;42.566;23.164;2023-04-03T12:47:55;676.63;;;251.53;;
73697;SDS011;62004;42.566;23.164;2023-04-03T12:50:04;694.17;;;250.93;;
73697;SDS011;62004;42.566;23.164;2023-04-03T12:52:32;703.47;;;270.20;;
73697;SDS011;62004;42.566;23.164;2023-04-03T12:54:59;734.58;;;267.48;;
73697;SDS011;62004;42.566;23.164;2023-04-03T12:57:27;699.65;;;261.15;;
73697;SDS011;62004;42.566;23.164;2023-04-03T12:59:55;710.83;;;257.98;;
73697;SDS011;62004;42.566;23.164;2023-04-03T13:02:25;693.50;;;269.50;;
73697;SDS011;62004;42.566;23.164;2023-04-03T13:07:35;638.30;;;233.23;;
73697;SDS011;62004;42.566;23.164;2023-04-03T13:12:32;736.30;;;276.55;;
73697;SDS011;62004;42.566;23.164;2023-04-03T13:14:59;716.67;;;235.27;;
73697;SDS011;62004;42.566;23.164;2023-04-03T13:17:25;661.63;;;259.42;;
73697;SDS011;62004;42.566;23.164;2023-04-03T13:19:52;674.72;;;254.35;;
73697;SDS011;62004;42.566;23.164;2023-04-03T13:22:26;652.40;;;258.75;;
73697;SDS011;62004;42.566;23.164;2023-04-03T13:24:52;608.58;;;250.20;;
73697;SDS011;62004;42.566;23.164;2023-04-03T13:27:19;618.92;;;255.20;;
73697;SDS011;62004;42.566;23.164;2023-04-03T13:29:48;694.40;;;253.93;;
73697;SDS011;62004;42.566;23.164;2023-04-03T13:32:17;659.58;;;260.30;;
73697;SDS011;62004;42.566;23.164;2023-04-03T13:34:43;690.05;;;254.75;;
73697;SDS011;62004;42.566;23.164;2023-04-03T13:42:33;689.67;;;256.40;;
73697;SDS011;62004;42.566;23.164;2023-04-03T13:45:09;719.78;;;272.60;;
73697;SDS011;62004;42.566;23.164;2023-04-03T13:47:39;652.03;;;237.60;;
73697;SDS011;62004;42.566;23.164;2023-04-03T13:52:32;731.22;;;278.52;;
73697;SDS011;62004;42.566;23.164;2023-04-03T13:55:02;689.65;;;271.48;;
73697;SDS011;62004;42.566;23.164;2023-04-03T13:57:28;747.08;;;279.17;;
73697;SDS011;62004;42.566;23.164;2023-04-03T13:59:54;727.55;;;259.65;;
73697;SDS011;62004;42.566;23.164;2023-04-03T14:02:29;765.38;;;274.23;;
73697;SDS011;62004;42.566;23.164;2023-04-03T14:04:56;697.58;;;264.58;;
73697;SDS011;62004;42.566;23.164;2023-04-03T14:09:50;750.57;;;270.73;;
73697;SDS011;62004;42.566;23.164;2023-04-03T14:12:26;714.42;;;249.95;;
73697;SDS011;62004;42.566;23.164;2023-04-03T14:14:52;705.60;;;263.13;;
73697;SDS011;62004;42.566;23.164;2023-04-03T14:17:19;746.10;;;261.15;;
73697;SDS011;62004;42.566;23.164;2023-04-03T14:19:44;798.67;;;296.25;;
73697;SDS011;62004;42.566;23.164;2023-04-03T14:22:17;744.15;;;260.65;;
73697;SDS011;62004;42.566;23.164;2023-04-03T14:24:42;696.15;;;257.67;;
73697;SDS011;62004;42.566;23.164;2023-04-03T14:27:27;708.63;;;254.23;;
73697;SDS011;62004;42.566;23.164;2023-04-03T14:29:54;724.28;;;263.88;;
73697;SDS011;62004;42.566;23.164;2023-04-03T14:32:21;667.08;;;238.27;;
73697;SDS011;62004;42.566;23.164;2023-04-03T14:34:47;765.25;;;286.88;;
73697;SDS011;62004;42.566;23.164;2023-04-03T14:37:14;702.08;;;267.63;;
73697;SDS011;62004;42.566;23.164;2023-04-03T14:39:40;720.55;;;261.10;;
73697;SDS011;62004;42.566;23.164;2023-04-03T14:42:06;724.25;;;260.70;;
73697;SDS011;62004;42.566;23.164;2023-04-03T14:44:36;708.50;;;266.48;;
73697;SDS011;62004;42.566;23.164;2023-04-03T14:47:01;765.17;;;279.40;;
73697;SDS011;62004;42.566;23.164;2023-04-03T14:49:27;841.33;;;295.45;;
73697;SDS011;62004;42.566;23.164;2023-04-03T14:51:55;730.15;;;267.92;;
73697;SDS011;62004;42.566;23.164;2023-04-03T14:54:21;714.70;;;259.77;;
73697;SDS011;62004;42.566;23.164;2023-04-03T14:59:15;707.03;;;260.40;;
73697;SDS011;62004;42.566;23.164;2023-04-03T15:01:42;769.42;;;267.02;;
73697;SDS011;62004;42.566;23.164;2023-04-03T15:04:14;773.97;;;284.02;;
73697;SDS011;62004;42.566;23.164;2023-04-03T15:06:40;691.10;;;263.42;;
73697;SDS011;62004;42.566;23.164;2023-04-03T15:09:10;784.63;;;304.92;;
73697;SDS011;62004;42.566;23.164;2023-04-03T15:11:39;717.65;;;253.85;;
73697;SDS011;62004;42.566;23.164;2023-04-03T15:14:05;668.83;;;261.30;;
73697;SDS011;62004;42.566;23.164;2023-04-03T15:16:30;674.27;;;251.20;;
73697;SDS011;62004;42.566;23.164;2023-04-03T15:18:55;742.15;;;276.88;;
73697;SDS011;62004;42.566;23.164;2023-04-03T15:21:21;698.00;;;255.83;;
73697;SDS011;62004;42.566;23.164;2023-04-03T15:23:46;712.30;;;271.97;;
73697;SDS011;62004;42.566;23.164;2023-04-03T15:26:11;685.47;;;254.13;;
73697;SDS011;62004;42.566;23.164;2023-04-03T15:28:38;667.53;;;277.00;;
73697;SDS011;62004;42.566;23.164;2023-04-03T15:31:04;665.67;;;269.85;;
73697;SDS011;62004;42.566;23.164;2023-04-03T15:33:30;694.53;;;269.88;;
73697;SDS011;62004;42.566;23.164;2023-04-03T15:35:55;705.50;;;259.55;;
73697;SDS011;62004;42.566;23.164;2023-04-03T15:38:21;648.20;;;259.65;;